createdAt,value
2023-05-13T00:02:08.480Z,1.70
2023-05-13T00:04:35.654Z,2.25
2023-05-13T00:07:02.762Z,2.15
2023-05-13T00:09:29.935Z,5.95
2023-05-13T00:11:57.045Z,2.63
2023-05-13T00:14:24.135Z,2.50
2023-05-13T00:16:51.473Z,2.55
2023-05-13T00:19:18.635Z,3.08
2023-05-13T00:21:45.802Z,2.33
2023-05-13T00:24:12.891Z,2.38
2023-05-13T00:26:39.970Z,2.88
2023-05-13T00:29:07.128Z,2.35
2023-05-13T00:31:35.476Z,2.55
2023-05-13T00:34:03.233Z,2.10
2023-05-13T00:36:30.585Z,2.30
2023-05-13T00:38:57.709Z,2.53
2023-05-13T00:41:25.078Z,2.42
2023-05-13T00:43:55.998Z,2.60
2023-05-13T00:46:23.993Z,2.30
2023-05-13T00:48:52.026Z,2.83
2023-05-13T00:51:19.253Z,2.60
2023-05-13T00:53:47.124Z,2.25
2023-05-13T00:56:15.305Z,3.03
2023-05-13T00:58:42.443Z,2.30
2023-05-13T01:01:21.301Z,2.42
2023-05-13T01:04:25.459Z,2.88
2023-05-13T01:07:07.890Z,2.08
2023-05-13T01:09:55.295Z,2.30
2023-05-13T01:12:36.982Z,2.00
2023-05-13T01:15:22.329Z,2.10
2023-05-13T01:17:58.314Z,2.28
2023-05-13T01:20:28.524Z,2.92
2023-05-13T01:22:56.825Z,2.45
2023-05-13T01:25:25.763Z,2.80
2023-05-13T01:27:53.679Z,2.58
2023-05-13T01:30:21.946Z,2.83
2023-05-13T01:32:50.937Z,2.17
2023-05-13T01:35:18.551Z,2.45
2023-05-13T01:37:47.470Z,2.60
2023-05-13T01:40:28.095Z,2.15
2023-05-13T01:43:01.430Z,2.42
2023-05-13T01:45:30.420Z,2.20
2023-05-13T01:47:58.180Z,2.28
2023-05-13T01:50:27.131Z,2.30
2023-05-13T01:52:54.427Z,2.15
2023-05-13T01:55:22.053Z,2.00
2023-05-13T01:57:49.777Z,2.40
2023-05-13T02:00:17.284Z,2.08
2023-05-13T02:02:44.716Z,2.30
2023-05-13T02:05:11.938Z,2.13
2023-05-13T02:07:39.156Z,2.20
2023-05-13T02:10:06.619Z,2.17
2023-05-13T02:12:33.746Z,2.08
2023-05-13T02:15:01.286Z,2.20
2023-05-13T02:17:30.840Z,2.35
2023-05-13T02:19:57.959Z,2.40
2023-05-13T02:22:25.713Z,2.50
2023-05-13T02:24:52.825Z,2.85
2023-05-13T02:27:20.981Z,2.03
2023-05-13T02:29:48.124Z,2.20
2023-05-13T02:32:15.184Z,2.40
2023-05-13T02:34:42.581Z,2.20
2023-05-13T02:37:09.684Z,2.30
2023-05-13T02:39:45.398Z,2.28
2023-05-13T02:42:13.230Z,2.72
2023-05-13T02:44:40.582Z,2.28
2023-05-13T02:47:09.098Z,2.70
2023-05-13T02:49:36.132Z,2.22
2023-05-13T02:52:04.018Z,2.15
2023-05-13T02:54:34.534Z,2.28
2023-05-13T02:57:01.577Z,2.20
2023-05-13T02:59:28.629Z,1.77
2023-05-13T03:01:55.695Z,2.10
2023-05-13T03:04:22.772Z,2.28
2023-05-13T03:06:51.321Z,2.40
2023-05-13T03:09:18.704Z,2.00
2023-05-13T03:11:45.823Z,2.22
2023-05-13T03:14:12.928Z,2.22
2023-05-13T03:16:40.171Z,2.40
2023-05-13T03:19:07.427Z,2.95
2023-05-13T03:21:34.781Z,2.60
2023-05-13T03:24:02.052Z,2.63
2023-05-13T03:26:29.152Z,2.47
2023-05-13T03:28:57.215Z,2.25
2023-05-13T03:31:24.672Z,2.65
2023-05-13T03:33:52.027Z,2.45
2023-05-13T03:36:19.652Z,2.22
2023-05-13T03:38:46.818Z,2.50
2023-05-13T03:41:17.542Z,2.30
2023-05-13T03:43:46.860Z,2.00
2023-05-13T03:46:14.972Z,2.17
2023-05-13T03:48:42.380Z,1.90
2023-05-13T03:51:09.457Z,2.60
2023-05-13T03:53:36.985Z,1.45
2023-05-13T03:56:04.436Z,1.70
2023-05-13T03:58:31.618Z,1.60
2023-05-13T04:00:58.742Z,1.77
2023-05-13T04:03:27.087Z,1.75
2023-05-13T04:05:54.262Z,1.67
2023-05-13T04:08:21.479Z,1.63
2023-05-13T04:10:49.493Z,1.42
2023-05-13T04:13:16.646Z,1.95
2023-05-13T04:15:43.766Z,2.10
2023-05-13T04:18:11.167Z,2.35
2023-05-13T04:20:39.740Z,2.35
2023-05-13T04:23:07.373Z,2.92
2023-05-13T04:25:37.473Z,2.50
2023-05-13T04:28:05.141Z,2.50
2023-05-13T04:30:36.654Z,2.67
2023-05-13T04:33:04.728Z,2.70
2023-05-13T04:35:33.184Z,2.13
2023-05-13T04:38:02.324Z,2.38
2023-05-13T04:40:30.127Z,2.28
2023-05-13T04:43:01.383Z,2.83
2023-05-13T04:45:33.172Z,2.40
2023-05-13T04:48:01.381Z,2.53
2023-05-13T04:50:28.585Z,2.88
2023-05-13T04:52:56.731Z,3.03
2023-05-13T04:55:26.017Z,4.07
2023-05-13T04:57:55.396Z,3.45
2023-05-13T05:00:22.885Z,3.72
2023-05-13T05:02:51.849Z,3.83
2023-05-13T05:05:19.094Z,4.32
2023-05-13T05:07:47.027Z,3.90
2023-05-13T05:10:15.712Z,4.00
2023-05-13T05:12:48.887Z,4.00
2023-05-13T05:15:16.220Z,4.10
2023-05-13T05:17:46.631Z,4.32
2023-05-13T05:20:13.820Z,4.50
2023-05-13T05:22:42.305Z,4.05
2023-05-13T05:25:12.076Z,4.50
2023-05-13T05:27:39.545Z,4.63
2023-05-13T05:30:09.221Z,4.95
2023-05-13T05:32:37.666Z,4.60
2023-05-13T05:35:06.275Z,5.00
2023-05-13T05:37:34.164Z,5.70
2023-05-13T05:40:01.471Z,4.55
2023-05-13T05:42:29.640Z,4.47
2023-05-13T05:44:56.774Z,4.68
2023-05-13T05:47:23.965Z,4.47
2023-05-13T05:49:51.413Z,4.47
2023-05-13T05:52:19.176Z,5.03
2023-05-13T05:54:46.274Z,4.70
2023-05-13T05:57:13.433Z,5.03
2023-05-13T05:59:40.605Z,4.63
2023-05-13T06:02:07.903Z,4.43
2023-05-13T06:04:36.163Z,4.85
2023-05-13T06:07:03.345Z,4.40
2023-05-13T06:09:30.808Z,4.75
2023-05-13T06:11:57.951Z,4.70
2023-05-13T06:14:25.265Z,4.65
2023-05-13T06:16:53.715Z,4.55
2023-05-13T06:19:22.784Z,4.68
2023-05-13T06:21:50.070Z,5.35
2023-05-13T06:24:17.147Z,4.32
2023-05-13T06:26:45.966Z,4.75
2023-05-13T06:29:14.801Z,4.60
2023-05-13T06:31:41.966Z,4.70
2023-05-13T06:34:09.189Z,4.43
2023-05-13T06:36:36.543Z,4.45
2023-05-13T06:39:06.116Z,5.35
2023-05-13T06:41:35.151Z,4.80
2023-05-13T06:44:08.369Z,4.70
2023-05-13T06:46:40.301Z,4.70
2023-05-13T06:49:07.525Z,5.00
2023-05-13T06:51:35.081Z,4.60
2023-05-13T06:54:02.207Z,4.90
2023-05-13T06:56:30.398Z,4.60
2023-05-13T06:58:57.577Z,4.55
2023-05-13T07:01:24.751Z,4.28
2023-05-13T07:03:51.924Z,4.57
2023-05-13T07:06:19.165Z,4.97
2023-05-13T07:08:46.465Z,4.60
2023-05-13T07:11:13.582Z,5.28
2023-05-13T07:13:40.684Z,4.50
2023-05-13T07:16:07.995Z,4.93
2023-05-13T07:18:35.365Z,4.65
2023-05-13T07:21:02.464Z,4.65
2023-05-13T07:23:29.590Z,4.35
2023-05-13T07:25:56.653Z,4.53
2023-05-13T07:28:23.939Z,4.10
2023-05-13T07:30:53.561Z,4.22
2023-05-13T07:33:20.764Z,4.50
2023-05-13T07:35:47.955Z,4.70
2023-05-13T07:38:15.492Z,4.60
2023-05-13T07:40:42.646Z,4.13
2023-05-13T07:43:10.185Z,4.40
2023-05-13T07:45:39.355Z,4.05
2023-05-13T07:48:06.690Z,4.15
2023-05-13T07:50:33.969Z,4.50
2023-05-13T07:53:01.196Z,4.30
2023-05-13T07:55:28.226Z,4.40
2023-05-13T07:57:55.292Z,4.32
2023-05-13T08:00:22.500Z,4.40
2023-05-13T08:02:49.747Z,4.50
2023-05-13T08:05:16.945Z,4.82
2023-05-13T08:07:44.108Z,4.50
2023-05-13T08:10:11.225Z,4.43
2023-05-13T08:12:40.435Z,4.50
2023-05-13T08:15:08.161Z,4.45
2023-05-13T08:17:35.594Z,4.50
2023-05-13T08:20:03.755Z,4.25
2023-05-13T08:22:31.126Z,4.60
2023-05-13T08:25:01.077Z,4.40
2023-05-13T08:27:28.301Z,4.47
2023-05-13T08:29:55.455Z,4.45
2023-05-13T08:32:22.680Z,4.40
2023-05-13T08:34:50.990Z,4.22
2023-05-13T08:37:18.127Z,4.82
2023-05-13T08:39:45.222Z,4.30
2023-05-13T08:42:12.699Z,4.10
2023-05-13T08:44:43.963Z,4.72
2023-05-13T08:47:22.737Z,5.65
2023-05-13T08:49:51.283Z,4.25
2023-05-13T08:52:21.044Z,5.10
2023-05-13T08:54:48.952Z,4.03
2023-05-13T08:57:16.814Z,4.30
2023-05-13T08:59:43.971Z,4.40
2023-05-13T09:02:11.158Z,4.40
2023-05-13T09:04:42.293Z,4.25
2023-05-13T09:07:10.649Z,4.38
2023-05-13T09:09:38.056Z,5.03
2023-05-13T09:12:06.049Z,4.40
2023-05-13T09:14:33.154Z,4.15
2023-05-13T09:17:02.555Z,4.18
2023-05-13T09:19:29.822Z,4.10
2023-05-13T09:21:57.691Z,4.13
2023-05-13T09:24:24.777Z,4.47
2023-05-13T09:26:52.236Z,4.22
2023-05-13T09:29:22.168Z,4.07
2023-05-13T09:31:54.424Z,4.32
2023-05-13T09:34:35.237Z,4.10
2023-05-13T09:37:04.788Z,3.92
2023-05-13T09:39:34.598Z,4.22
2023-05-13T09:42:04.543Z,3.85
2023-05-13T09:44:32.939Z,4.10
2023-05-13T10:17:41.534Z,4.37
2023-05-13T10:20:08.998Z,4.30
2023-05-13T10:22:37.220Z,4.43
2023-05-13T10:25:05.340Z,3.92
2023-05-13T10:27:34.074Z,3.58
2023-05-13T10:30:05.909Z,4.32
2023-05-13T10:32:33.085Z,4.18
2023-05-13T10:35:06.870Z,3.92
2023-05-13T10:37:43.678Z,3.90
2023-05-13T10:40:16.669Z,4.10
2023-05-13T10:42:54.181Z,4.00
2023-05-13T10:45:27.649Z,4.30
2023-05-13T10:47:56.464Z,4.45
2023-05-13T10:50:24.533Z,3.97
2023-05-13T10:52:56.671Z,4.30
2023-05-13T10:55:24.204Z,4.20
2023-05-13T10:58:10.962Z,3.70
2023-05-13T11:03:18.899Z,4.70
2023-05-13T11:05:58.967Z,4.32
2023-05-13T11:08:43.744Z,4.53
2023-05-13T11:11:22.865Z,5.10
2023-05-13T11:13:54.633Z,4.20
2023-05-13T11:16:23.335Z,4.47
2023-05-13T11:18:54.322Z,4.25
2023-05-13T11:21:33.096Z,4.00
2023-05-13T11:24:05.965Z,3.70
2023-05-13T11:26:51.738Z,3.58
2023-05-13T11:29:31.215Z,3.45
2023-05-13T11:32:00.808Z,3.90
2023-05-13T11:34:29.267Z,4.07
2023-05-13T11:37:05.397Z,3.75
2023-05-13T11:39:33.316Z,4.03
2023-05-13T11:42:04.112Z,3.97
2023-05-13T11:44:31.676Z,3.65
2023-05-13T11:46:59.750Z,3.60
2023-05-13T11:49:33.661Z,3.70
2023-05-13T11:52:14.651Z,3.92
2023-05-13T11:54:53.701Z,3.60
2023-05-13T11:57:26.291Z,3.90
2023-05-13T12:00:05.437Z,3.38
2023-05-13T12:02:40.794Z,3.55
2023-05-13T12:05:09.990Z,3.42
2023-05-13T12:07:38.548Z,3.53
2023-05-13T12:10:07.299Z,4.25
2023-05-13T12:12:38.204Z,3.78
2023-05-13T12:15:10.296Z,4.43
2023-05-13T12:17:37.810Z,3.90
2023-05-13T12:20:08.446Z,3.50
2023-05-13T12:22:36.603Z,3.63
2023-05-13T12:25:41.009Z,3.78
2023-05-13T12:28:24.335Z,3.53
2023-05-13T12:31:01.871Z,3.33
2023-05-13T12:33:42.992Z,3.25
2023-05-13T12:36:20.563Z,3.50
2023-05-13T12:38:55.499Z,3.42
2023-05-13T12:44:18.090Z,3.50
2023-05-13T12:46:55.777Z,3.30
2023-05-13T12:49:22.974Z,3.85
2023-05-13T12:51:51.830Z,3.67
2023-05-13T12:54:19.149Z,3.63
2023-05-13T12:56:46.280Z,3.60
2023-05-13T12:59:14.670Z,3.70
2023-05-13T13:01:43.047Z,3.40
2023-05-13T13:04:10.644Z,3.33
2023-05-13T13:06:37.936Z,4.10
2023-05-13T13:09:06.152Z,3.65
2023-05-13T13:11:33.237Z,3.30
2023-05-13T13:14:00.286Z,3.30
2023-05-13T13:16:27.655Z,3.20
2023-05-13T13:18:58.957Z,3.63
2023-05-13T13:21:27.019Z,3.40
2023-05-13T13:23:54.170Z,3.60
2023-05-13T13:26:23.290Z,3.17
2023-05-13T13:28:50.410Z,3.80
2023-05-13T13:31:17.609Z,3.50
2023-05-13T13:33:44.870Z,3.22
2023-05-13T13:36:11.983Z,3.63
2023-05-13T13:38:39.106Z,3.30
2023-05-13T13:41:06.355Z,3.33
2023-05-13T13:43:33.535Z,3.53
2023-05-13T13:46:00.778Z,3.47
2023-05-13T13:48:27.910Z,3.20
2023-05-13T13:50:55.199Z,3.35
2023-05-13T13:53:22.408Z,3.45
2023-05-13T13:55:49.626Z,3.50
2023-05-13T13:58:16.722Z,4.40
2023-05-13T14:00:43.896Z,3.60
2023-05-13T14:03:11.063Z,3.58
2023-05-13T14:05:38.472Z,3.85
2023-05-13T14:08:05.912Z,4.20
2023-05-13T14:10:33.062Z,4.00
2023-05-13T14:13:00.186Z,3.47
2023-05-13T14:15:29.801Z,3.47
2023-05-13T14:17:57.709Z,3.05
2023-05-13T14:20:25.185Z,3.50
2023-05-13T14:22:52.280Z,3.20
2023-05-13T14:25:19.326Z,3.30
2023-05-13T14:27:46.426Z,3.50
2023-05-13T14:30:13.702Z,3.65
2023-05-13T14:32:45.102Z,3.40
2023-05-13T14:35:13.094Z,3.20
2023-05-13T14:37:41.425Z,3.22
2023-05-13T14:40:09.744Z,3.50
2023-05-13T14:42:36.915Z,3.25
2023-05-13T14:45:04.250Z,3.85
2023-05-13T14:47:31.780Z,3.60
2023-05-13T14:49:58.984Z,3.17
2023-05-13T14:52:26.209Z,3.20
2023-05-13T14:54:54.355Z,3.75
2023-05-13T14:57:21.507Z,3.10
2023-05-13T14:59:48.612Z,3.10
2023-05-13T15:02:17.390Z,3.30
2023-05-13T15:04:44.898Z,3.33
2023-05-13T15:07:12.220Z,3.53
2023-05-13T15:09:39.379Z,3.47
2023-05-13T15:12:07.142Z,3.33
2023-05-13T15:14:34.188Z,3.63
2023-05-13T15:17:01.395Z,3.50
2023-05-13T15:19:28.859Z,3.33
2023-05-13T15:21:55.980Z,3.58
2023-05-13T15:24:23.155Z,3.03
2023-05-13T15:26:50.802Z,3.08
2023-05-13T15:29:18.186Z,3.42
2023-05-13T15:31:45.365Z,3.20
2023-05-13T15:34:12.448Z,3.17
2023-05-13T15:36:39.531Z,3.78
2023-05-13T15:39:07.016Z,3.40
2023-05-13T15:41:34.144Z,3.03
2023-05-13T15:44:01.250Z,3.72
2023-05-13T15:46:28.471Z,3.40
2023-05-13T15:48:55.960Z,3.75
2023-05-13T15:51:23.048Z,3.75
2023-05-13T15:53:50.659Z,3.65
2023-05-13T15:56:17.803Z,4.25
2023-05-13T15:58:45.145Z,4.00
2023-05-13T16:01:12.253Z,3.63
2023-05-13T16:03:39.412Z,3.72
2023-05-13T16:06:06.713Z,4.25
2023-05-13T16:08:33.827Z,4.13
2023-05-13T16:11:01.093Z,3.88
2023-05-13T16:13:28.171Z,3.83
2023-05-13T16:15:55.822Z,4.07
2023-05-13T16:18:23.127Z,3.65
2023-05-13T16:20:50.295Z,4.00
2023-05-13T16:23:17.387Z,3.70
2023-05-13T16:25:44.633Z,3.97
2023-05-13T16:28:11.749Z,4.07
2023-05-13T16:30:39.581Z,4.18
2023-05-13T16:33:08.091Z,4.78
2023-05-13T16:35:36.493Z,6.35
2023-05-13T16:38:03.701Z,7.45
2023-05-13T16:40:30.798Z,7.82
2023-05-13T16:43:00.442Z,8.10
2023-05-13T16:45:29.730Z,7.22
2023-05-13T16:47:57.100Z,8.38
2023-05-13T16:50:24.539Z,7.88
2023-05-13T16:52:51.859Z,7.47
2023-05-13T16:55:19.011Z,5.85
2023-05-13T16:57:46.938Z,5.07
2023-05-13T17:00:14.654Z,3.13
2023-05-13T17:02:42.924Z,3.55
2023-05-13T17:05:10.294Z,3.20
2023-05-13T17:07:37.428Z,2.90
2023-05-13T17:10:04.944Z,3.47
2023-05-13T17:12:32.128Z,3.20
2023-05-13T17:14:59.315Z,3.08
2023-05-13T17:19:53.786Z,3.22
2023-05-13T17:22:20.954Z,3.38
2023-05-13T17:24:48.083Z,3.67
2023-05-13T17:27:15.216Z,3.38
2023-05-13T17:29:42.329Z,3.03
2023-05-13T17:32:09.549Z,3.88
2023-05-13T17:34:36.618Z,3.80
2023-05-13T17:37:03.830Z,3.20
2023-05-13T17:39:31.023Z,3.13
2023-05-13T17:41:58.176Z,3.10
2023-05-13T17:44:25.511Z,3.40
2023-05-13T17:46:52.629Z,3.30
2023-05-13T17:49:19.737Z,3.90
2023-05-13T17:51:46.823Z,3.28
2023-05-13T17:54:14.264Z,2.90
2023-05-13T17:56:41.386Z,3.30
2023-05-13T17:59:08.591Z,3.10
2023-05-13T18:01:35.710Z,3.47
2023-05-13T18:04:02.809Z,3.40
2023-05-13T18:06:29.872Z,2.70
2023-05-13T18:08:57.061Z,3.20
2023-05-13T18:11:24.114Z,2.80
2023-05-13T18:13:51.192Z,3.17
2023-05-13T18:16:19.550Z,3.15
2023-05-13T18:18:48.906Z,3.20
2023-05-13T18:21:16.266Z,3.10
2023-05-13T18:23:45.906Z,3.30
2023-05-13T18:26:13.042Z,3.17
2023-05-13T18:28:45.007Z,3.08
2023-05-13T18:31:12.225Z,2.80
2023-05-13T18:33:39.423Z,2.90
2023-05-13T18:36:08.027Z,3.50
2023-05-13T18:38:35.993Z,3.38
2023-05-13T18:41:03.842Z,2.90
2023-05-13T18:43:31.034Z,2.70
2023-05-13T18:45:58.373Z,2.92
2023-05-13T18:48:25.530Z,2.70
2023-05-13T18:50:53.254Z,2.97
2023-05-13T18:53:20.702Z,2.72
2023-05-13T18:55:47.807Z,2.95
2023-05-13T18:58:14.969Z,2.60
2023-05-13T19:00:42.656Z,2.80
2023-05-13T19:03:09.912Z,2.72
2023-05-13T19:05:37.081Z,2.30
2023-05-13T19:08:05.435Z,2.50
2023-05-13T19:10:39.105Z,2.40
2023-05-13T19:13:07.312Z,3.33
2023-05-13T19:15:34.629Z,2.28
2023-05-13T19:18:02.098Z,2.47
2023-05-13T19:20:30.241Z,2.63
2023-05-13T19:22:57.486Z,2.70
2023-05-13T19:25:24.690Z,2.10
2023-05-13T19:27:51.931Z,2.42
2023-05-13T19:30:19.108Z,2.50
2023-05-13T19:32:46.361Z,2.85
2023-05-13T19:35:13.534Z,3.10
2023-05-13T19:37:40.874Z,3.80
2023-05-13T19:40:09.107Z,3.33
2023-05-13T19:42:36.338Z,3.58
2023-05-13T19:45:06.409Z,3.60
2023-05-13T19:47:34.946Z,3.92
2023-05-13T19:50:02.414Z,5.28
2023-05-13T19:52:29.883Z,5.32
2023-05-13T19:54:57.055Z,5.90
2023-05-13T19:57:24.151Z,5.18
2023-05-13T19:59:51.846Z,5.75
2023-05-13T20:02:19.119Z,5.68
2023-05-13T20:04:46.237Z,5.72
2023-05-13T20:07:13.313Z,5.47
2023-05-13T20:09:40.542Z,5.80
2023-05-13T20:12:07.938Z,5.85
2023-05-13T20:14:52.049Z,5.65
2023-05-13T20:17:21.252Z,5.10
2023-05-13T20:19:49.622Z,4.90
2023-05-13T20:22:18.362Z,5.38
2023-05-13T20:24:49.024Z,5.10
2023-05-13T20:27:17.645Z,4.93
2023-05-13T20:29:47.326Z,5.15
2023-05-13T20:32:18.504Z,5.25
2023-05-13T20:34:45.570Z,5.22
2023-05-13T20:37:12.673Z,4.82
2023-05-13T20:39:39.718Z,5.30
2023-05-13T20:42:06.886Z,4.05
2023-05-13T20:44:34.004Z,3.50
2023-05-13T20:47:01.078Z,2.40
2023-05-13T20:49:28.386Z,3.13
2023-05-13T20:51:55.571Z,3.20
2023-05-13T20:54:22.693Z,2.55
2023-05-13T20:56:49.798Z,2.60
2023-05-13T20:59:16.961Z,2.50
2023-05-13T21:01:47.623Z,2.30
2023-05-13T21:04:14.932Z,2.25
2023-05-13T21:06:42.267Z,2.40
2023-05-13T21:09:09.428Z,2.30
2023-05-13T21:11:36.578Z,2.22
2023-05-13T21:14:03.823Z,2.60
2023-05-13T21:16:31.188Z,2.35
2023-05-13T21:18:58.533Z,2.25
2023-05-13T21:21:25.843Z,2.50
2023-05-13T21:23:53.056Z,2.40
2023-05-13T21:26:22.045Z,2.40
2023-05-13T21:28:49.150Z,2.50
2023-05-13T21:31:16.319Z,2.22
2023-05-13T21:33:43.512Z,2.80
2023-05-13T21:36:10.608Z,2.92
2023-05-13T21:38:37.935Z,3.30
2023-05-13T21:41:05.110Z,4.00
2023-05-13T21:43:32.194Z,3.05
2023-05-13T21:45:59.364Z,3.20
2023-05-13T21:48:26.664Z,3.00
2023-05-13T21:50:53.997Z,3.28
2023-05-13T21:53:22.495Z,2.40
2023-05-13T21:55:49.641Z,2.70
2023-05-13T21:58:16.787Z,2.60
2023-05-13T22:00:43.929Z,2.55
2023-05-13T22:03:11.017Z,2.53
2023-05-13T22:05:43.822Z,2.47
2023-05-13T22:08:11.478Z,2.45
2023-05-13T22:10:39.469Z,2.75
2023-05-13T22:13:06.813Z,2.38
2023-05-13T22:15:33.937Z,3.05
2023-05-13T22:18:01.217Z,2.80
2023-05-13T22:20:28.490Z,3.30
2023-05-13T22:22:56.173Z,3.67
2023-05-13T22:25:23.335Z,4.40
2023-05-13T22:27:51.211Z,3.95
2023-05-13T22:30:18.677Z,3.13
2023-05-13T22:32:45.975Z,3.10
2023-05-13T22:35:13.129Z,3.40
2023-05-13T22:37:40.289Z,3.00
2023-05-13T22:40:11.253Z,3.45
2023-05-13T22:42:38.272Z,4.38
2023-05-13T22:45:05.784Z,4.90
2023-05-13T22:47:32.907Z,5.18
2023-05-13T22:50:00.085Z,4.90
2023-05-13T22:52:27.197Z,6.30
2023-05-13T22:54:54.252Z,5.95
2023-05-13T22:57:22.197Z,6.65
2023-05-13T22:59:49.310Z,6.75
2023-05-13T23:02:16.401Z,5.90
2023-05-13T23:04:43.471Z,4.65
2023-05-13T23:07:10.536Z,4.95
2023-05-13T23:09:37.602Z,6.25
2023-05-13T23:12:05.112Z,6.60
2023-05-13T23:14:32.199Z,8.55
2023-05-13T23:16:59.324Z,7.50
2023-05-13T23:19:26.415Z,9.23
2023-05-13T23:21:53.859Z,8.98
2023-05-13T23:24:21.356Z,8.25
2023-05-13T23:26:49.481Z,8.10
2023-05-13T23:29:16.934Z,8.80
2023-05-13T23:31:44.097Z,7.13
2023-05-13T23:34:11.247Z,7.28
2023-05-13T23:36:38.366Z,7.28
2023-05-13T23:39:06.235Z,7.80
2023-05-13T23:41:35.049Z,6.05
2023-05-13T23:44:02.690Z,6.22
2023-05-13T23:46:29.773Z,5.95
2023-05-13T23:48:57.087Z,6.93
2023-05-13T23:51:24.139Z,5.43
2023-05-13T23:53:52.029Z,5.25
2023-05-13T23:56:19.073Z,5.85
2023-05-13T23:58:46.134Z,5.70
